North Kingsville, Ohio
Current Conditions -  °F | °C
As of 11:53 AM on Thursday 18 Dec 2014 (Local Time) from KHZY Reporting Station
Overcast Overcast  
Wind Chill: 23°   Ceiling: 1600
Heat Index: 31°   Visibility: 10mi
Dew Point: 25°   Wind: 8mph
Humidity: 79%   Direction: 280°W
Pressure: 30.16"   Gusts: NA
Location:  41.91°N, 80.69°W
Report Text: KHZY 181653Z AUTO 28007KT 10SM OVC016 M01/M04 A3016 RMK AO2 SLP223 T10061039
Loading
Personal Weather Stations






























Interactive Weather Map New forecast layout! Learn more

10-Day Weather Forecast

Advertisements
Track Severe Weather on mobile